createdAt,value
2018-02-02T00:00:36.672Z,36.20
2018-02-02T00:03:04.463Z,37.50
2018-02-02T00:05:32.284Z,37.60
2018-02-02T00:08:00.086Z,36.90
2018-02-02T00:10:27.807Z,36.90
2018-02-02T00:12:55.546Z,38.00
2018-02-02T00:15:23.316Z,40.00
2018-02-02T00:17:51.119Z,36.70
2018-02-02T00:20:18.857Z,37.50
2018-02-02T00:22:46.673Z,37.50
2018-02-02T00:25:14.417Z,38.30
2018-02-02T00:27:42.162Z,37.30
2018-02-02T00:30:09.910Z,37.30
2018-02-02T00:32:37.723Z,37.80
2018-02-02T00:35:05.464Z,37.40
2018-02-02T00:37:33.200Z,37.50
2018-02-02T00:40:01.010Z,37.40
2018-02-02T00:42:28.779Z,37.40
2018-02-02T00:44:56.521Z,39.10
2018-02-02T00:47:24.274Z,38.30
2018-02-02T00:49:52.071Z,37.90
2018-02-02T00:52:19.828Z,37.50
2018-02-02T00:54:47.656Z,37.80
2018-02-02T00:57:15.741Z,38.30
2018-02-02T00:59:43.485Z,38.30
2018-02-02T01:02:11.241Z,38.20
2018-02-02T01:04:39.248Z,37.90
2018-02-02T01:07:07.062Z,38.30
2018-02-02T01:09:34.794Z,38.80
2018-02-02T01:12:02.601Z,38.00
2018-02-02T01:14:30.376Z,38.80
2018-02-02T01:16:58.166Z,40.20
2018-02-02T01:19:25.996Z,37.70
2018-02-02T01:21:53.803Z,38.60
2018-02-02T01:24:21.562Z,37.60
2018-02-02T01:26:50.059Z,39.40
2018-02-02T01:29:17.860Z,39.30
2018-02-02T01:31:46.349Z,38.60
2018-02-02T01:34:15.094Z,40.30
2018-02-02T01:36:42.879Z,40.10
2018-02-02T01:39:10.671Z,39.90
2018-02-02T01:41:38.487Z,39.00
2018-02-02T01:44:06.283Z,40.60
2018-02-02T01:46:34.072Z,39.80
2018-02-02T01:49:01.901Z,40.10
2018-02-02T01:51:29.646Z,40.10
2018-02-02T01:53:57.394Z,41.00
2018-02-02T01:56:25.195Z,40.50
2018-02-02T01:58:53.007Z,39.80
2018-02-02T02:01:20.757Z,40.90
2018-02-02T02:03:48.575Z,42.10
2018-02-02T02:06:17.153Z,41.50
2018-02-02T02:08:44.898Z,41.40
2018-02-02T02:11:12.733Z,40.70
2018-02-02T02:13:40.539Z,41.60
2018-02-02T02:16:08.279Z,40.60
2018-02-02T02:18:36.051Z,41.50
2018-02-02T02:21:03.842Z,40.90
2018-02-02T02:23:31.628Z,41.70
2018-02-02T02:26:00.207Z,42.60
2018-02-02T02:28:28.015Z,42.40
2018-02-02T02:30:55.808Z,41.50
2018-02-02T02:33:23.601Z,41.60
2018-02-02T02:35:51.400Z,42.00
2018-02-02T02:38:20.005Z,41.90
2018-02-02T02:40:47.848Z,41.80
2018-02-02T02:43:16.352Z,44.00
2018-02-02T02:45:44.116Z,43.90
2018-02-02T02:48:11.868Z,43.00
2018-02-02T02:50:39.652Z,42.80
2018-02-02T02:53:07.417Z,43.40
2018-02-02T02:55:35.249Z,42.10
2018-02-02T02:58:03.036Z,42.90
2018-02-02T03:00:30.827Z,43.50
2018-02-02T03:02:58.640Z,42.90
2018-02-02T03:05:26.443Z,43.20
2018-02-02T03:07:55.009Z,44.00
2018-02-02T03:10:22.734Z,43.90
2018-02-02T03:12:50.516Z,43.90
2018-02-02T03:15:18.315Z,44.90
2018-02-02T03:17:46.113Z,45.50
2018-02-02T03:20:13.922Z,43.90
2018-02-02T03:22:41.672Z,44.20
2018-02-02T03:25:09.446Z,45.30
2018-02-02T03:27:37.191Z,44.80
2018-02-02T03:30:05.002Z,44.90
2018-02-02T03:32:32.752Z,45.30
2018-02-02T03:35:00.500Z,46.20
2018-02-02T03:37:28.290Z,46.10
2018-02-02T03:39:56.052Z,46.30
2018-02-02T03:42:23.847Z,46.50
2018-02-02T03:44:51.576Z,46.90
2018-02-02T03:47:19.342Z,46.20
2018-02-02T03:49:47.113Z,46.20
2018-02-02T03:52:14.869Z,47.00
2018-02-02T03:54:42.656Z,47.10
2018-02-02T03:57:10.447Z,47.00
2018-02-02T03:59:38.955Z,47.80
2018-02-02T04:02:06.897Z,47.70
2018-02-02T04:04:35.470Z,48.30
2018-02-02T04:07:03.248Z,47.50
2018-02-02T04:09:31.066Z,48.40
2018-02-02T04:11:58.803Z,48.20
2018-02-02T04:14:26.541Z,48.60
2018-02-02T04:16:54.384Z,47.10
2018-02-02T04:19:22.193Z,48.00
2018-02-02T04:21:50.805Z,47.10
2018-02-02T04:24:18.544Z,47.00
2018-02-02T04:26:46.333Z,47.30
2018-02-02T04:29:14.131Z,49.20
2018-02-02T04:31:41.942Z,48.20
2018-02-02T04:34:09.704Z,48.70
2018-02-02T04:36:37.487Z,49.00
2018-02-02T04:39:05.373Z,48.20
2018-02-02T04:41:33.172Z,48.40
2018-02-02T04:44:01.694Z,48.60
2018-02-02T04:46:30.266Z,49.00
2018-02-02T04:48:58.098Z,48.90
2018-02-02T04:51:25.829Z,49.50
2018-02-02T04:53:53.582Z,49.10
2018-02-02T04:56:21.345Z,50.20
2018-02-02T04:58:49.107Z,49.00
2018-02-02T05:01:16.982Z,48.50
2018-02-02T05:03:45.698Z,50.30
2018-02-02T05:06:13.529Z,50.70
2018-02-02T05:08:41.343Z,51.10
2018-02-02T05:11:09.158Z,48.90
2018-02-02T05:13:36.897Z,50.50
2018-02-02T05:16:04.683Z,49.30
2018-02-02T05:18:32.473Z,49.60
2018-02-02T05:21:00.222Z,48.60
2018-02-02T05:23:27.965Z,49.50
2018-02-02T05:25:55.727Z,49.10
2018-02-02T05:28:23.538Z,47.90
2018-02-02T05:30:51.363Z,47.70
2018-02-02T05:33:19.242Z,47.70
2018-02-02T05:35:47.614Z,48.20
2018-02-02T05:38:15.510Z,48.80
2018-02-02T05:40:43.462Z,46.90
2018-02-02T05:43:11.283Z,48.50
2018-02-02T05:45:47.604Z,47.10
2018-02-02T05:48:15.450Z,46.80
2018-02-02T05:50:43.222Z,47.00
2018-02-02T05:53:10.971Z,47.70
2018-02-02T05:55:38.731Z,47.00
2018-02-02T05:58:06.529Z,47.40
2018-02-02T06:00:34.409Z,47.90
2018-02-02T06:03:02.148Z,46.30
2018-02-02T06:05:31.925Z,46.60
2018-02-02T06:08:01.896Z,46.10
2018-02-02T06:10:34.886Z,46.00
2018-02-02T06:13:02.927Z,45.80
2018-02-02T06:15:30.736Z,46.60
2018-02-02T06:17:58.557Z,45.70
2018-02-02T06:20:27.084Z,46.30
2018-02-02T06:22:54.875Z,46.20
2018-02-02T06:25:22.729Z,48.10
2018-02-02T06:27:50.618Z,46.00
2018-02-02T06:30:18.441Z,48.60
2018-02-02T06:32:46.220Z,45.40
2018-02-02T06:35:14.069Z,45.00
2018-02-02T06:37:41.906Z,45.70
2018-02-02T06:40:10.433Z,47.00
2018-02-02T06:42:51.362Z,47.00
2018-02-02T06:45:19.564Z,45.50
2018-02-02T06:47:47.382Z,46.30
2018-02-02T06:50:15.111Z,44.80
2018-02-02T06:52:42.930Z,44.80
2018-02-02T06:55:10.708Z,46.20
2018-02-02T06:57:39.300Z,45.10
2018-02-02T07:00:07.051Z,45.10
2018-02-02T07:02:34.878Z,44.90
2018-02-02T07:05:03.516Z,45.40
2018-02-02T07:07:31.298Z,43.60
2018-02-02T07:09:59.050Z,44.80
2018-02-02T07:12:26.890Z,44.30
2018-02-02T07:14:54.639Z,43.50
2018-02-02T07:17:22.363Z,45.00
2018-02-02T07:19:50.156Z,43.50
2018-02-02T07:22:17.958Z,43.50
2018-02-02T07:24:45.744Z,45.50
2018-02-02T07:27:13.528Z,45.40
2018-02-02T07:29:41.320Z,44.50
2018-02-02T07:32:09.057Z,44.10
2018-02-02T07:34:37.640Z,44.00
2018-02-02T07:37:05.373Z,44.00
2018-02-02T07:39:33.197Z,44.00
2018-02-02T07:42:01.068Z,44.70
2018-02-02T07:44:28.865Z,44.60
2018-02-02T07:46:56.656Z,44.80
2018-02-02T07:49:24.466Z,46.10
2018-02-02T07:51:52.212Z,44.10
2018-02-02T07:54:20.000Z,44.00
2018-02-02T07:56:47.770Z,44.00
2018-02-02T07:59:15.595Z,44.20
2018-02-02T08:01:43.424Z,44.00
2018-02-02T08:04:11.283Z,44.30
2018-02-02T08:06:39.013Z,44.00
2018-02-02T08:09:07.539Z,44.60
2018-02-02T08:11:35.339Z,44.60
2018-02-02T08:14:03.197Z,43.60
2018-02-02T08:16:30.981Z,44.20
2018-02-02T08:18:58.773Z,43.20
2018-02-02T08:21:27.346Z,44.90
2018-02-02T08:23:55.163Z,44.90
2018-02-02T08:26:22.984Z,42.80
2018-02-02T08:28:50.801Z,42.60
2018-02-02T08:31:18.570Z,42.80
2018-02-02T08:33:46.367Z,42.60
2018-02-02T08:36:14.188Z,44.10
2018-02-02T08:38:42.051Z,42.90
2018-02-02T08:41:09.850Z,44.20
2018-02-02T08:43:37.593Z,44.30
2018-02-02T08:46:05.531Z,42.40
2018-02-02T08:48:33.373Z,43.70
2018-02-02T08:51:01.116Z,44.50
2018-02-02T08:53:28.864Z,44.90
2018-02-02T08:55:56.595Z,45.10
2018-02-02T08:58:24.326Z,45.20
2018-02-02T09:00:57.583Z,45.60
2018-02-02T09:03:25.363Z,45.70
2018-02-02T09:05:53.835Z,46.00
2018-02-02T09:08:21.637Z,45.80
2018-02-02T09:10:49.446Z,46.10
2018-02-02T09:13:17.265Z,46.50
2018-02-02T09:15:45.015Z,46.60
2018-02-02T09:18:12.828Z,45.30
2018-02-02T09:20:41.360Z,45.10
2018-02-02T09:23:09.211Z,45.10
2018-02-02T09:25:37.036Z,44.50
2018-02-02T09:28:04.317Z,44.10
2018-02-02T09:30:32.118Z,44.50
2018-02-02T09:33:00.654Z,44.30
2018-02-02T09:35:28.398Z,44.40
2018-02-02T09:37:56.157Z,43.70
2018-02-02T09:40:23.941Z,44.00
2018-02-02T09:42:51.738Z,43.80
2018-02-02T09:45:20.260Z,44.00
2018-02-02T09:47:48.059Z,43.90
2018-02-02T09:50:15.853Z,43.90
2018-02-02T09:52:43.590Z,45.00
2018-02-02T09:55:11.334Z,43.70
2018-02-02T09:57:39.144Z,45.00
2018-02-02T10:00:07.197Z,44.10
2018-02-02T10:02:35.175Z,44.30
2018-02-02T10:05:02.974Z,44.00
2018-02-02T10:07:31.118Z,43.60
2018-02-02T10:09:58.875Z,44.30
2018-02-02T10:12:26.686Z,44.50
2018-02-02T10:14:54.506Z,43.30
2018-02-02T10:17:22.261Z,43.90
2018-02-02T10:19:50.025Z,44.30
2018-02-02T10:22:17.775Z,44.20
2018-02-02T10:24:45.546Z,43.00
2018-02-02T10:27:13.350Z,43.30
2018-02-02T10:29:41.174Z,43.60
2018-02-02T10:32:08.916Z,44.90
2018-02-02T10:34:37.413Z,44.00
2018-02-02T10:37:05.233Z,44.00
2018-02-02T10:39:33.797Z,44.30
2018-02-02T10:42:01.655Z,44.40
2018-02-02T10:44:29.450Z,43.50
2018-02-02T10:46:57.291Z,43.20
2018-02-02T10:49:25.117Z,42.70
2018-02-02T10:51:52.848Z,41.50
2018-02-02T10:56:54.543Z,42.70
2018-02-02T10:59:22.306Z,41.60
2018-02-02T11:01:50.211Z,42.10
2018-02-02T11:04:18.030Z,42.00
2018-02-02T11:06:45.769Z,41.50
2018-02-02T11:09:13.595Z,42.10
2018-02-02T11:11:41.441Z,42.20
2018-02-02T11:14:09.170Z,42.70
2018-02-02T11:16:36.976Z,42.80
2018-02-02T11:19:04.715Z,43.00
2018-02-02T11:21:33.187Z,42.50
2018-02-02T11:24:00.978Z,43.80
2018-02-02T11:26:28.817Z,42.80
2018-02-02T11:28:56.702Z,42.70
2018-02-02T11:31:24.455Z,41.90
2018-02-02T11:33:52.307Z,41.70
2018-02-02T11:36:20.849Z,41.30
2018-02-02T11:38:48.613Z,41.20
2018-02-02T11:41:16.417Z,40.90
2018-02-02T11:43:44.217Z,42.00
2018-02-02T11:46:11.970Z,42.20
2018-02-02T11:48:39.770Z,42.80
2018-02-02T11:51:07.572Z,40.60
2018-02-02T11:53:35.380Z,41.00
2018-02-02T11:56:03.130Z,40.10
2018-02-02T11:58:30.888Z,39.50
2018-02-02T12:01:00.271Z,41.50
2018-02-02T12:03:28.058Z,41.40
2018-02-02T12:05:55.868Z,41.30
2018-02-02T12:08:23.685Z,41.60
2018-02-02T12:10:51.497Z,41.10
2018-02-02T12:13:19.297Z,40.00
2018-02-02T12:15:47.098Z,39.70
2018-02-02T12:18:15.713Z,41.50
2018-02-02T12:20:43.565Z,41.40
2018-02-02T12:23:17.722Z,41.10
2018-02-02T12:26:03.204Z,41.00
2018-02-02T12:28:36.573Z,41.30
2018-02-02T12:45:17.217Z,39.00
2018-02-02T12:47:56.746Z,38.90
2018-02-02T12:50:24.622Z,40.50
2018-02-02T12:52:52.458Z,40.50
2018-02-02T12:55:20.183Z,39.80
2018-02-02T12:57:47.918Z,40.00
2018-02-02T13:00:15.723Z,39.60
2018-02-02T13:02:43.562Z,39.80
2018-02-02T13:05:11.395Z,39.70
2018-02-02T13:07:39.160Z,39.80
2018-02-02T13:10:06.902Z,38.90
2018-02-02T13:12:34.670Z,41.00
2018-02-02T13:15:02.417Z,40.20
2018-02-02T13:17:30.920Z,38.90
2018-02-02T13:19:58.748Z,38.90
2018-02-02T13:22:26.479Z,38.40
2018-02-02T13:24:54.361Z,38.50
2018-02-02T13:27:22.155Z,39.40
2018-02-02T13:29:49.920Z,39.50
2018-02-02T13:32:17.820Z,40.30
2018-02-02T13:34:45.667Z,41.10
2018-02-02T13:37:13.901Z,40.60
2018-02-02T13:39:41.693Z,41.40
2018-02-02T13:42:09.948Z,40.90
2018-02-02T13:44:38.520Z,40.40
2018-02-02T13:47:07.405Z,40.30
2018-02-02T13:49:35.441Z,40.90
2018-02-02T13:52:04.817Z,40.80
2018-02-02T13:54:32.638Z,40.80
2018-02-02T13:57:00.981Z,43.00
2018-02-02T13:59:29.269Z,41.80
2018-02-02T14:01:57.880Z,41.30
2018-02-02T14:04:26.575Z,41.80
2018-02-02T14:06:56.322Z,41.70
2018-02-02T14:09:25.365Z,41.50
2018-02-02T14:11:53.596Z,43.30
2018-02-02T14:14:22.825Z,42.50
2018-02-02T14:16:51.277Z,42.70
2018-02-02T14:19:19.009Z,42.80
2018-02-02T14:21:46.813Z,42.50
2018-02-02T14:24:14.612Z,42.60
2018-02-02T14:26:42.360Z,42.50
2018-02-02T14:29:10.116Z,42.40
2018-02-02T14:31:37.939Z,42.90
2018-02-02T14:34:05.698Z,43.40
2018-02-02T14:36:34.288Z,43.10
2018-02-02T14:39:02.072Z,43.00
2018-02-02T14:41:29.890Z,43.10
2018-02-02T14:43:57.785Z,43.10
2018-02-02T14:46:25.580Z,43.30
2018-02-02T14:48:53.369Z,43.50
2018-02-02T14:51:22.855Z,43.10
2018-02-02T14:53:50.651Z,43.00
2018-02-02T14:56:18.424Z,43.40
2018-02-02T14:58:46.172Z,43.50
2018-02-02T15:01:13.918Z,44.10
2018-02-02T15:03:41.649Z,44.10
2018-02-02T15:06:10.165Z,44.40
2018-02-02T15:08:37.958Z,44.40
2018-02-02T15:11:05.756Z,44.80
2018-02-02T15:13:33.578Z,44.00
2018-02-02T15:16:01.399Z,44.40
2018-02-02T15:18:29.979Z,45.50
2018-02-02T15:20:57.726Z,44.80
2018-02-02T15:23:37.215Z,44.70
2018-02-02T15:26:04.959Z,44.20
2018-02-02T15:28:32.718Z,44.20
2018-02-02T15:31:00.522Z,45.00
2018-02-02T15:33:28.316Z,45.00
2018-02-02T15:35:56.151Z,45.00
2018-02-02T15:38:23.982Z,45.00
2018-02-02T15:40:51.777Z,45.30
2018-02-02T15:43:19.569Z,49.50
2018-02-02T15:45:47.354Z,48.60
2018-02-02T15:48:15.113Z,43.80
2018-02-02T15:50:42.845Z,45.00
2018-02-02T15:53:11.409Z,41.60
2018-02-02T15:55:39.242Z,41.60
2018-02-02T15:58:07.048Z,42.60
2018-02-02T16:00:34.903Z,39.20
2018-02-02T16:03:02.675Z,39.30
2018-02-02T16:05:30.406Z,40.90
2018-02-02T16:07:58.267Z,40.80
2018-02-02T16:10:26.589Z,41.90
2018-02-02T16:12:54.386Z,42.40
2018-02-02T16:15:22.218Z,40.90
2018-02-02T16:17:50.106Z,42.60
2018-02-02T16:20:17.867Z,41.50
2018-02-02T16:22:45.693Z,40.40
2018-02-02T16:25:13.491Z,42.90
2018-02-02T16:27:41.286Z,40.00
2018-02-02T16:30:09.053Z,40.80
2018-02-02T16:32:36.809Z,39.60
2018-02-02T16:35:04.624Z,41.40
2018-02-02T16:37:32.469Z,42.00
2018-02-02T16:40:00.331Z,37.50
2018-02-02T16:42:28.123Z,38.80
2018-02-02T16:44:55.932Z,42.10
2018-02-02T16:47:23.724Z,41.70
2018-02-02T16:49:51.542Z,40.30
2018-02-02T16:52:19.353Z,38.00
2018-02-02T16:54:48.145Z,39.60
2018-02-02T16:57:15.882Z,39.50
2018-02-02T16:59:43.640Z,40.30
2018-02-02T17:02:11.405Z,41.00
2018-02-02T17:04:39.168Z,39.80
2018-02-02T17:07:06.923Z,43.50
2018-02-02T17:09:34.653Z,44.00
2018-02-02T17:12:03.168Z,39.10
2018-02-02T17:14:30.924Z,39.10
2018-02-02T17:16:58.692Z,39.60
2018-02-02T17:19:26.425Z,39.60
2018-02-02T17:21:54.949Z,39.40
2018-02-02T17:24:22.702Z,39.40
2018-02-02T17:26:50.461Z,40.30
2018-02-02T17:29:18.202Z,41.80
2018-02-02T17:31:45.952Z,42.20
2018-02-02T17:34:13.720Z,39.60
2018-02-02T17:36:41.494Z,40.50
2018-02-02T17:39:09.273Z,39.20
2018-02-02T17:41:37.018Z,38.40
2018-02-02T17:44:04.744Z,40.70
2018-02-02T17:46:32.502Z,43.60
2018-02-02T17:49:00.288Z,39.50
2018-02-02T17:51:28.050Z,38.80
2018-02-02T17:53:55.821Z,39.00
2018-02-02T17:56:23.583Z,39.50
2018-02-02T17:58:51.303Z,39.40
2018-02-02T18:01:21.590Z,40.40
2018-02-02T18:03:49.373Z,40.20
2018-02-02T18:06:17.104Z,40.10
2018-02-02T18:08:44.852Z,40.40
2018-02-02T18:11:12.601Z,40.30
2018-02-02T18:13:40.378Z,40.40
2018-02-02T18:16:08.234Z,39.80
2018-02-02T18:18:35.966Z,41.00
2018-02-02T18:21:03.840Z,40.60
2018-02-02T18:23:31.597Z,38.80
2018-02-02T18:26:00.803Z,39.50
2018-02-02T18:28:30.982Z,39.90
2018-02-02T18:31:04.829Z,41.20
2018-02-02T18:33:32.591Z,41.40
2018-02-02T18:36:00.426Z,41.80
2018-02-02T18:38:28.218Z,40.20
2018-02-02T18:40:56.042Z,41.40
2018-02-02T18:43:23.983Z,39.50
2018-02-02T18:45:51.810Z,39.80
2018-02-02T18:48:20.766Z,40.60
2018-02-02T18:50:57.158Z,40.30
2018-02-02T18:53:25.490Z,40.20
2018-02-02T18:55:54.489Z,39.20
2018-02-02T18:58:22.314Z,39.30
2018-02-02T19:01:33.063Z,39.90
2018-02-02T19:06:42.504Z,40.10
2018-02-02T19:09:10.596Z,39.60
2018-02-02T19:11:38.353Z,39.80
2018-02-02T19:14:06.128Z,39.50
2018-02-02T19:16:33.856Z,40.40
2018-02-02T19:19:01.606Z,40.50
2018-02-02T19:21:29.364Z,41.60
2018-02-02T19:23:57.097Z,40.70
2018-02-02T19:26:25.599Z,39.70
2018-02-02T19:28:53.352Z,39.70
2018-02-02T19:31:21.185Z,39.30
2018-02-02T19:33:48.921Z,39.10
2018-02-02T19:36:16.647Z,40.10
2018-02-02T19:38:44.385Z,39.30
2018-02-02T19:41:12.121Z,39.40
2018-02-02T19:43:39.848Z,39.70
2018-02-02T19:46:08.411Z,38.90
2018-02-02T19:48:37.190Z,38.80
2018-02-02T19:51:05.200Z,40.50
2018-02-02T19:53:32.974Z,39.40
2018-02-02T19:56:02.118Z,39.00
2018-02-02T19:58:29.891Z,39.00
2018-02-02T20:00:57.663Z,39.40
2018-02-02T20:03:25.459Z,38.90
2018-02-02T20:05:53.953Z,38.50
2018-02-02T20:08:21.702Z,38.40
2018-02-02T20:10:51.056Z,38.80
2018-02-02T20:13:21.473Z,38.70
2018-02-02T20:15:51.701Z,39.20
2018-02-02T20:18:19.435Z,39.30
2018-02-02T20:20:49.776Z,39.60
2018-02-02T20:23:22.746Z,39.50
2018-02-02T20:25:53.062Z,40.10
2018-02-02T20:28:26.825Z,40.50
2018-02-02T20:30:56.875Z,40.50
2018-02-02T20:33:26.575Z,40.10
2018-02-02T20:35:55.308Z,39.70
2018-02-02T20:38:23.655Z,39.70
2018-02-02T20:40:52.131Z,40.20
2018-02-02T20:43:21.635Z,40.30
2018-02-02T20:45:51.243Z,40.40
2018-02-02T20:48:20.795Z,39.40
2018-02-02T20:50:50.012Z,39.70
2018-02-02T20:53:21.573Z,40.90
2018-02-02T20:55:50.854Z,40.20
2018-02-02T20:58:20.173Z,39.30
2018-02-02T21:00:49.298Z,39.20
2018-02-02T21:03:17.121Z,40.80
2018-02-02T21:05:44.866Z,39.70
2018-02-02T21:08:12.615Z,41.20
2018-02-02T21:10:40.362Z,39.30
2018-02-02T21:13:08.152Z,38.70
2018-02-02T21:15:35.902Z,38.50
2018-02-02T21:18:03.664Z,37.80
2018-02-02T21:20:31.468Z,38.60
2018-02-02T21:22:59.238Z,40.50
2018-02-02T21:25:27.736Z,37.80
2018-02-02T21:28:02.793Z,36.90
2018-02-02T21:30:30.580Z,36.40
2018-02-02T21:32:58.952Z,36.80
2018-02-02T21:35:32.599Z,37.50
2018-02-02T21:38:00.485Z,38.80
2018-02-02T21:40:28.246Z,37.40
2018-02-02T21:42:55.961Z,37.10
2018-02-02T21:45:23.860Z,37.90
2018-02-02T21:47:51.671Z,38.10
2018-02-02T21:50:19.399Z,39.20
2018-02-02T21:52:47.164Z,37.30
2018-02-02T21:55:14.962Z,36.50
2018-02-02T21:57:42.688Z,35.50
2018-02-02T22:00:10.474Z,36.50
2018-02-02T22:02:38.217Z,36.40
2018-02-02T22:05:05.989Z,37.50
2018-02-02T22:07:33.740Z,36.50
2018-02-02T22:10:01.471Z,35.60
2018-02-02T22:12:29.971Z,36.00
2018-02-02T22:14:57.708Z,35.90
2018-02-02T22:17:25.454Z,36.20
2018-02-02T22:19:53.189Z,35.80
2018-02-02T22:22:20.975Z,35.80
2018-02-02T22:24:48.761Z,35.80
2018-02-02T22:27:17.346Z,36.40
2018-02-02T22:29:45.090Z,36.10
2018-02-02T22:32:12.826Z,36.50
2018-02-02T22:34:40.561Z,36.70
2018-02-02T22:37:08.345Z,38.30
2018-02-02T22:39:36.106Z,36.80
2018-02-02T22:42:03.850Z,37.50
2018-02-02T22:44:31.603Z,36.80
2018-02-02T22:46:59.362Z,36.40
2018-02-02T22:49:27.089Z,37.40
2018-02-02T22:51:56.044Z,38.10
2018-02-02T22:54:25.389Z,36.80
2018-02-02T22:56:54.753Z,37.30
2018-02-02T22:59:22.926Z,37.00
2018-02-02T23:01:51.463Z,37.60
2018-02-02T23:04:21.484Z,37.60
2018-02-02T23:06:50.434Z,37.00
2018-02-02T23:09:18.979Z,37.30
2018-02-02T23:11:46.724Z,36.90
2018-02-02T23:14:14.449Z,37.00
2018-02-02T23:16:42.980Z,38.20
2018-02-02T23:19:10.728Z,38.20
2018-02-02T23:21:38.456Z,38.00
2018-02-02T23:24:06.191Z,37.90
2018-02-02T23:26:33.912Z,37.80
2018-02-02T23:29:02.405Z,38.10
2018-02-02T23:31:30.162Z,38.00
2018-02-02T23:33:57.896Z,38.40
2018-02-02T23:36:25.677Z,38.00
2018-02-02T23:38:53.426Z,38.10
2018-02-02T23:41:21.193Z,38.30
2018-02-02T23:43:48.921Z,38.50
2018-02-02T23:46:20.176Z,38.70
2018-02-02T23:48:47.991Z,39.10
2018-02-02T23:51:15.747Z,38.90
2018-02-02T23:53:43.478Z,39.20
2018-02-02T23:56:11.236Z,39.50
2018-02-02T23:58:38.975Z,38.80
